createdAt,value
2022-09-14T00:01:44.339Z,19.92
2022-09-14T00:04:15.224Z,19.91
2022-09-14T00:06:44.180Z,19.93
2022-09-14T00:09:16.647Z,19.89
2022-09-14T00:11:45.010Z,19.83
2022-09-14T00:14:15.361Z,19.74
2022-09-14T00:16:44.550Z,19.65
2022-09-14T00:19:20.466Z,19.54
2022-09-14T00:21:52.948Z,19.40
2022-09-14T00:24:21.808Z,19.30
2022-09-14T00:26:50.300Z,19.26
2022-09-14T00:29:21.453Z,19.30
2022-09-14T00:31:49.804Z,19.36
2022-09-14T00:34:19.198Z,19.37
2022-09-14T00:36:49.653Z,19.34
2022-09-14T00:39:20.539Z,19.32
2022-09-14T00:41:49.782Z,19.37
2022-09-14T00:44:55.258Z,19.43
2022-09-14T00:47:25.973Z,19.46
2022-09-14T00:49:55.071Z,19.43
2022-09-14T00:52:25.952Z,19.31
2022-09-14T00:54:57.524Z,19.15
2022-09-14T00:57:28.628Z,19.00
2022-09-14T00:59:57.199Z,18.94
2022-09-14T01:02:29.131Z,19.04
2022-09-14T01:04:57.793Z,19.21
2022-09-14T01:07:40.322Z,19.34
2022-09-14T01:10:20.470Z,19.36
2022-09-14T01:12:59.888Z,19.36
2022-09-14T01:15:41.573Z,19.36
2022-09-14T01:18:17.619Z,19.40
2022-09-14T01:20:52.546Z,19.42
2022-09-14T01:23:29.235Z,19.42
2022-09-14T01:26:22.865Z,19.37
2022-09-14T01:28:57.716Z,19.36
2022-09-14T01:31:31.369Z,19.34
2022-09-14T01:34:10.485Z,19.38
2022-09-14T01:36:41.404Z,19.43
2022-09-14T01:39:12.283Z,19.44
2022-09-14T01:41:42.285Z,19.38
2022-09-14T01:44:18.061Z,19.36
2022-09-14T01:46:49.659Z,19.25
2022-09-14T01:49:22.695Z,19.17
2022-09-14T01:51:55.485Z,19.10
2022-09-14T01:54:28.077Z,18.98
2022-09-14T01:57:00.138Z,19.05
2022-09-14T01:59:34.202Z,19.17
2022-09-14T02:02:09.310Z,19.24
2022-09-14T02:04:42.308Z,19.27
2022-09-14T02:07:11.889Z,19.28
2022-09-14T02:09:40.756Z,19.32
2022-09-14T02:12:09.876Z,19.34
2022-09-14T02:14:39.711Z,19.34
2022-09-14T02:17:09.445Z,19.30
2022-09-14T02:19:43.680Z,19.31
2022-09-14T02:22:12.012Z,19.30
2022-09-14T02:24:41.263Z,19.16
2022-09-14T02:27:09.915Z,19.15
2022-09-14T02:29:40.001Z,19.14
2022-09-14T02:32:20.463Z,19.00
2022-09-14T02:34:59.218Z,18.99
2022-09-14T02:37:35.551Z,19.05
2022-09-14T02:40:11.850Z,19.03
2022-09-14T02:42:47.007Z,18.99
2022-09-14T02:45:25.329Z,19.03
2022-09-14T02:48:02.428Z,19.05
2022-09-14T02:50:37.053Z,19.02
2022-09-14T02:53:14.157Z,19.03
2022-09-14T02:55:46.260Z,19.01
2022-09-14T02:58:15.597Z,19.07
2022-09-14T03:00:47.925Z,19.13
2022-09-14T03:03:18.698Z,19.16
2022-09-14T03:05:47.589Z,19.16
2022-09-14T03:08:16.165Z,19.17
2022-09-14T03:10:45.500Z,19.20
2022-09-14T03:13:13.884Z,19.20
2022-09-14T03:15:42.558Z,19.13
2022-09-14T03:18:14.436Z,19.05
2022-09-14T03:20:43.722Z,19.02
2022-09-14T03:23:13.564Z,19.00
2022-09-14T03:25:43.675Z,19.02
2022-09-14T03:28:13.321Z,19.04
2022-09-14T03:30:41.896Z,19.04
2022-09-14T03:33:12.150Z,19.00
2022-09-14T03:35:40.452Z,18.98
2022-09-14T03:38:09.009Z,18.99
2022-09-14T03:40:37.355Z,19.02
2022-09-14T03:43:05.726Z,19.03
2022-09-14T03:45:34.104Z,19.07
2022-09-14T03:48:03.070Z,19.10
2022-09-14T03:50:32.964Z,19.12
2022-09-14T03:53:02.634Z,19.14
2022-09-14T03:55:30.923Z,19.13
2022-09-14T03:57:59.231Z,19.08
2022-09-14T04:00:27.757Z,19.07
2022-09-14T04:02:56.353Z,19.04
2022-09-14T04:05:24.795Z,19.02
2022-09-14T04:07:54.538Z,19.02
2022-09-14T04:10:22.878Z,19.03
2022-09-14T04:12:51.209Z,19.03
2022-09-14T04:15:19.904Z,19.01
2022-09-14T04:17:48.705Z,19.00
2022-09-14T04:20:18.850Z,18.96
2022-09-14T04:22:47.595Z,18.94
2022-09-14T04:25:17.436Z,18.97
2022-09-14T04:27:51.390Z,18.97
2022-09-14T04:30:32.724Z,18.97
2022-09-14T04:33:02.314Z,18.94
2022-09-14T04:35:30.662Z,18.82
2022-09-14T04:37:59.089Z,18.73
2022-09-14T04:40:29.052Z,18.73
2022-09-14T04:42:57.434Z,18.81
2022-09-14T04:45:26.937Z,18.86
2022-09-14T04:47:55.605Z,18.86
2022-09-14T04:50:23.926Z,18.76
2022-09-14T04:52:52.230Z,18.76
2022-09-14T04:55:20.586Z,18.84
2022-09-14T04:57:50.449Z,18.90
2022-09-14T05:00:19.075Z,18.92
2022-09-14T05:02:47.659Z,18.96
2022-09-14T05:05:16.110Z,19.00
2022-09-14T05:07:44.639Z,19.03
2022-09-14T05:10:12.963Z,19.05
2022-09-14T05:12:41.465Z,18.96
2022-09-14T05:15:11.951Z,18.95
2022-09-14T05:17:40.268Z,18.88
2022-09-14T05:20:09.834Z,18.88
2022-09-14T05:22:38.166Z,18.80
2022-09-14T05:25:07.901Z,18.77
2022-09-14T05:27:37.147Z,18.81
2022-09-14T05:30:06.463Z,18.74
2022-09-14T05:32:36.160Z,18.78
2022-09-14T05:35:05.030Z,18.81
2022-09-14T05:37:33.540Z,18.91
2022-09-14T05:40:02.669Z,19.03
2022-09-14T05:42:31.219Z,19.15
2022-09-14T05:44:59.588Z,19.24
2022-09-14T05:47:30.545Z,19.31
2022-09-14T05:50:00.179Z,19.36
2022-09-14T05:52:30.488Z,19.38
2022-09-14T05:54:58.849Z,19.40
2022-09-14T05:57:27.258Z,19.41
2022-09-14T05:59:55.628Z,19.41
2022-09-14T06:02:25.086Z,19.42
2022-09-14T06:04:53.694Z,19.43
2022-09-14T06:07:23.608Z,19.45
2022-09-14T06:09:51.906Z,19.42
2022-09-14T06:12:20.198Z,19.37
2022-09-14T06:14:48.997Z,19.33
2022-09-14T06:17:17.359Z,19.31
2022-09-14T06:19:45.711Z,19.32
2022-09-14T06:22:14.210Z,19.34
2022-09-14T06:24:43.929Z,19.36
2022-09-14T06:27:12.573Z,19.37
2022-09-14T06:29:40.902Z,19.36
2022-09-14T06:32:10.246Z,19.32
2022-09-14T06:34:38.573Z,19.32
2022-09-14T06:37:06.876Z,19.34
2022-09-14T06:39:35.192Z,19.33
2022-09-14T06:42:05.624Z,19.34
2022-09-14T06:44:34.080Z,19.39
2022-09-14T06:47:02.566Z,19.41
2022-09-14T06:49:31.737Z,19.37
2022-09-14T06:52:00.958Z,19.36
2022-09-14T06:54:29.402Z,19.36
2022-09-14T06:56:58.362Z,19.35
2022-09-14T06:59:28.058Z,19.33
2022-09-14T07:01:56.882Z,19.34
2022-09-14T07:04:25.996Z,19.37
2022-09-14T07:06:54.317Z,19.39
2022-09-14T07:09:23.099Z,19.43
2022-09-14T07:11:51.451Z,19.46
2022-09-14T07:14:21.010Z,19.51
2022-09-14T07:16:50.788Z,19.56
2022-09-14T07:19:19.262Z,19.58
2022-09-14T07:21:48.479Z,19.61
2022-09-14T07:24:17.070Z,19.65
2022-09-14T07:26:45.413Z,19.66
2022-09-14T07:29:16.035Z,19.68
2022-09-14T07:31:46.356Z,19.76
2022-09-14T07:34:16.752Z,19.84
2022-09-14T07:36:45.171Z,19.92
2022-09-14T07:39:15.664Z,20.01
2022-09-14T07:41:44.456Z,20.08
2022-09-14T07:44:17.340Z,20.18
2022-09-14T07:46:47.094Z,20.30
2022-09-14T07:49:17.674Z,20.43
2022-09-14T07:51:46.847Z,20.55
2022-09-14T07:54:16.951Z,20.65
2022-09-14T07:56:45.784Z,20.69
2022-09-14T08:02:03.958Z,20.74
2022-09-14T08:04:35.103Z,20.75
2022-09-14T08:07:03.824Z,20.79
2022-09-14T08:09:32.343Z,20.87
2022-09-14T08:12:00.770Z,20.94
2022-09-14T08:14:29.205Z,20.98
2022-09-14T08:16:57.764Z,21.01
2022-09-14T08:19:26.487Z,21.01
2022-09-14T08:21:56.270Z,21.00
2022-09-14T08:24:25.452Z,20.97
2022-09-14T08:26:54.034Z,20.98
2022-09-14T08:29:23.437Z,20.98
2022-09-14T08:31:53.002Z,21.01
2022-09-14T08:34:21.931Z,21.04
2022-09-14T08:36:50.482Z,21.08
2022-09-14T08:39:20.338Z,21.11
2022-09-14T08:41:56.666Z,21.15
2022-09-14T08:44:28.366Z,21.21
2022-09-14T08:47:02.798Z,21.28
2022-09-14T08:49:44.076Z,21.35
2022-09-14T08:52:23.782Z,21.41
2022-09-14T08:54:56.827Z,21.48
2022-09-14T08:57:31.488Z,21.54
2022-09-14T09:00:10.505Z,21.58
2022-09-14T09:03:17.211Z,21.60
2022-09-14T09:05:52.810Z,21.63
2022-09-14T09:08:30.322Z,21.68
2022-09-14T09:11:01.762Z,21.71
2022-09-14T09:13:35.396Z,21.74
2022-09-14T09:16:09.183Z,21.86
2022-09-14T09:18:42.370Z,21.99
2022-09-14T09:21:16.503Z,22.13
2022-09-14T09:23:45.125Z,22.27
2022-09-14T09:26:25.359Z,22.42
2022-09-14T09:28:56.139Z,22.56
2022-09-14T09:31:31.834Z,22.72
2022-09-14T09:34:00.341Z,22.84
2022-09-14T09:36:31.870Z,22.95
2022-09-14T09:39:04.399Z,23.06
2022-09-14T09:41:44.319Z,23.17
2022-09-14T09:44:12.954Z,23.26
2022-09-14T09:46:47.861Z,23.36
2022-09-14T09:49:20.990Z,23.48
2022-09-14T09:51:50.604Z,23.50
2022-09-14T09:54:26.245Z,23.53
2022-09-14T09:56:58.496Z,23.63
2022-09-14T09:59:35.279Z,23.75
2022-09-14T10:02:24.421Z,23.89
2022-09-14T10:05:01.815Z,24.03
2022-09-14T10:07:32.796Z,24.14
2022-09-14T10:10:03.672Z,24.23
2022-09-14T10:12:33.989Z,24.34
2022-09-14T10:15:09.455Z,24.44
2022-09-14T10:17:38.883Z,24.53
2022-09-14T10:20:08.395Z,24.63
2022-09-14T10:22:39.952Z,24.73
2022-09-14T10:25:23.477Z,24.86
2022-09-14T10:28:00.658Z,25.00
2022-09-14T10:30:35.508Z,25.13
2022-09-14T10:33:06.085Z,25.25
2022-09-14T10:35:43.928Z,25.34
2022-09-14T10:38:24.784Z,25.44
2022-09-14T10:41:03.352Z,25.49
2022-09-14T10:43:42.999Z,25.55
2022-09-14T10:46:15.623Z,25.65
2022-09-14T10:48:58.453Z,25.74
2022-09-14T10:51:36.126Z,25.79
2022-09-14T10:54:29.771Z,25.92
2022-09-14T10:57:09.994Z,26.01
2022-09-14T10:59:50.948Z,26.11
2022-09-14T11:02:57.991Z,26.21
2022-09-14T11:05:31.298Z,26.27
2022-09-14T11:08:10.295Z,26.34
2022-09-14T11:10:47.250Z,26.48
2022-09-14T11:13:47.352Z,26.61
2022-09-14T11:16:33.969Z,26.71
2022-09-14T11:19:12.390Z,26.80
2022-09-14T11:21:49.856Z,26.92
2022-09-14T11:24:22.615Z,27.04
2022-09-14T11:27:02.762Z,27.08
2022-09-14T11:29:34.589Z,27.11
2022-09-14T11:32:20.756Z,27.14
2022-09-14T11:34:56.088Z,27.17
2022-09-14T11:37:33.148Z,27.13
2022-09-14T11:40:10.311Z,27.13
2022-09-14T11:42:45.588Z,27.18
2022-09-14T11:45:23.137Z,27.21
2022-09-14T11:48:01.011Z,27.22
2022-09-14T11:50:32.794Z,27.22
2022-09-14T11:53:10.039Z,27.27
2022-09-14T11:55:41.681Z,27.39
2022-09-14T11:58:19.077Z,27.55
2022-09-14T12:01:10.259Z,27.69
2022-09-14T12:03:55.581Z,27.81
2022-09-14T12:06:43.941Z,27.97
2022-09-14T12:09:42.000Z,28.03
2022-09-14T12:12:29.380Z,28.12
2022-09-14T12:15:02.846Z,28.19
2022-09-14T12:17:40.306Z,28.24
2022-09-14T12:20:40.703Z,28.25
2022-09-14T12:23:27.627Z,28.33
2022-09-14T12:26:27.727Z,28.39
2022-09-14T12:29:00.555Z,28.42
2022-09-14T12:31:48.482Z,28.43
2022-09-14T12:34:20.115Z,28.47
2022-09-14T12:37:21.520Z,28.40
2022-09-14T12:40:32.378Z,28.24
2022-09-14T12:43:48.914Z,28.17
2022-09-14T12:46:39.514Z,28.11
2022-09-14T12:49:32.667Z,28.10
2022-09-14T12:52:20.133Z,28.11
2022-09-14T12:55:04.490Z,28.17
2022-09-14T12:57:44.539Z,28.17
2022-09-14T13:00:16.808Z,28.15
2022-09-14T13:03:23.322Z,28.12
2022-09-14T13:05:52.173Z,28.09
2022-09-14T13:08:24.598Z,28.02
2022-09-14T13:10:54.612Z,27.94
2022-09-14T13:13:27.344Z,27.85
2022-09-14T13:15:59.015Z,27.74
2022-09-14T13:18:33.329Z,27.60
2022-09-14T13:21:03.635Z,27.47
2022-09-14T13:23:36.977Z,27.31
2022-09-14T13:26:12.764Z,27.16
2022-09-14T13:28:44.331Z,27.03
2022-09-14T13:31:15.650Z,26.90
2022-09-14T13:33:49.942Z,26.77
2022-09-14T13:36:20.343Z,26.66
2022-09-14T13:38:49.983Z,26.59
2022-09-14T13:41:23.267Z,26.56
2022-09-14T13:43:55.668Z,26.53
2022-09-14T13:46:26.410Z,26.53
2022-09-14T13:48:55.946Z,26.50
2022-09-14T13:51:26.342Z,26.47
2022-09-14T13:53:56.545Z,26.45
2022-09-14T13:56:31.879Z,26.43
2022-09-14T13:59:21.776Z,26.42
2022-09-14T14:01:59.176Z,26.41
2022-09-14T14:04:37.111Z,26.40
2022-09-14T14:07:09.503Z,26.37
2022-09-14T14:09:43.776Z,26.33
2022-09-14T14:12:24.483Z,26.30
2022-09-14T14:14:57.851Z,26.29
2022-09-14T14:17:37.598Z,26.29
2022-09-14T14:20:36.519Z,26.29
2022-09-14T14:23:21.146Z,26.21
2022-09-14T14:25:54.325Z,26.12
2022-09-14T14:28:27.606Z,26.04
2022-09-14T14:30:57.207Z,25.99
2022-09-14T14:33:26.146Z,25.93
2022-09-14T14:35:56.480Z,25.89
2022-09-14T14:38:25.660Z,25.86
2022-09-14T14:40:57.457Z,25.82
2022-09-14T14:43:28.780Z,25.78
2022-09-14T14:45:59.136Z,25.75
2022-09-14T14:48:28.112Z,25.72
2022-09-14T14:50:56.843Z,25.66
2022-09-14T14:53:25.355Z,25.60
2022-09-14T14:55:54.223Z,25.51
2022-09-14T14:58:23.824Z,25.44
2022-09-14T15:00:54.722Z,25.35
2022-09-14T15:03:23.432Z,25.28
2022-09-14T15:05:51.859Z,25.18
2022-09-14T15:08:20.885Z,25.05
2022-09-14T15:10:50.074Z,24.93
2022-09-14T15:13:18.811Z,24.77
2022-09-14T15:15:47.328Z,24.63
2022-09-14T15:18:17.378Z,24.49
2022-09-14T15:20:45.979Z,24.36
2022-09-14T15:23:15.269Z,24.22
2022-09-14T15:25:43.715Z,24.07
2022-09-14T15:28:12.053Z,23.95
2022-09-14T15:30:41.668Z,23.78
2022-09-14T15:33:09.978Z,23.59
2022-09-14T15:35:40.118Z,23.26
2022-09-14T15:38:08.501Z,22.95
2022-09-14T15:40:36.936Z,22.72
2022-09-14T15:43:05.435Z,22.56
2022-09-14T15:45:34.232Z,22.46
2022-09-14T15:48:03.315Z,22.37
2022-09-14T15:50:31.712Z,22.26
2022-09-14T15:53:02.779Z,22.14
2022-09-14T15:55:31.337Z,22.05
2022-09-14T15:57:59.850Z,21.98
2022-09-14T16:00:28.227Z,21.90
2022-09-14T16:02:56.599Z,21.88
2022-09-14T16:05:25.201Z,21.78
2022-09-14T16:07:54.556Z,21.68
2022-09-14T16:10:25.781Z,21.55
2022-09-14T16:12:56.186Z,21.45
2022-09-14T16:15:25.164Z,21.33
2022-09-14T16:17:55.405Z,21.21
2022-09-14T16:20:24.091Z,20.93
2022-09-14T16:22:52.445Z,20.62
2022-09-14T16:25:20.784Z,20.54
2022-09-14T16:27:50.543Z,20.50
2022-09-14T16:30:18.902Z,20.38
2022-09-14T16:32:47.350Z,20.30
2022-09-14T16:35:15.714Z,20.33
2022-09-14T16:37:44.028Z,20.46
2022-09-14T16:40:13.910Z,20.54
2022-09-14T16:42:42.967Z,20.62
2022-09-14T16:45:12.753Z,20.67
2022-09-14T16:47:41.157Z,20.68
2022-09-14T16:50:10.414Z,20.69
2022-09-14T16:52:39.160Z,20.77
2022-09-14T16:55:08.892Z,20.79
2022-09-14T16:57:39.124Z,20.83
2022-09-14T17:00:09.331Z,20.96
2022-09-14T17:02:39.313Z,21.05
2022-09-14T17:05:08.952Z,21.19
2022-09-14T17:07:37.473Z,21.31
2022-09-14T17:10:06.727Z,21.42
2022-09-14T17:12:35.055Z,21.48
2022-09-14T17:15:03.372Z,21.47
2022-09-14T17:17:31.704Z,21.39
2022-09-14T17:20:01.393Z,21.42
2022-09-14T17:22:29.712Z,21.47
2022-09-14T17:24:58.053Z,21.45
2022-09-14T17:27:26.598Z,21.44
2022-09-14T17:29:54.936Z,21.37
2022-09-14T17:32:23.375Z,21.37
2022-09-14T17:34:52.097Z,21.38
2022-09-14T17:37:23.657Z,21.39
2022-09-14T17:39:52.473Z,21.38
2022-09-14T17:42:20.916Z,21.28
2022-09-14T17:44:49.253Z,21.21
2022-09-14T17:47:17.615Z,21.20
2022-09-14T17:49:45.997Z,21.19
2022-09-14T17:52:15.129Z,21.16
2022-09-14T17:54:44.855Z,21.16
2022-09-14T17:57:13.183Z,21.12
2022-09-14T17:59:41.739Z,21.07
2022-09-14T18:02:10.561Z,21.08
2022-09-14T18:04:39.135Z,21.06
2022-09-14T18:07:07.886Z,21.03
2022-09-14T18:09:36.232Z,21.03
2022-09-14T18:12:07.595Z,21.02
2022-09-14T18:14:35.983Z,20.87
2022-09-14T18:17:04.406Z,20.71
2022-09-14T18:19:32.767Z,20.63
2022-09-14T18:22:01.072Z,20.55
2022-09-14T18:24:29.644Z,20.55
2022-09-14T18:26:58.362Z,20.48
2022-09-14T18:29:30.260Z,20.41
2022-09-14T18:31:58.675Z,20.38
2022-09-14T18:34:27.371Z,20.34
2022-09-14T18:36:55.762Z,20.30
2022-09-14T18:39:24.155Z,20.30
2022-09-14T18:41:53.753Z,20.32
2022-09-14T18:44:22.197Z,20.31
2022-09-14T18:46:52.218Z,20.35
2022-09-14T18:49:20.955Z,20.31
2022-09-14T18:51:49.280Z,20.29
2022-09-14T18:54:18.106Z,20.26
2022-09-14T18:56:46.793Z,20.25
2022-09-14T18:59:16.326Z,20.21
2022-09-14T19:01:45.152Z,20.21
2022-09-14T19:04:15.936Z,20.23
2022-09-14T19:06:44.820Z,20.29
2022-09-14T19:09:13.268Z,20.32
2022-09-14T19:11:42.125Z,20.34
2022-09-14T19:14:13.058Z,20.29
2022-09-14T19:16:42.574Z,20.24
2022-09-14T19:19:15.742Z,20.20
2022-09-14T19:21:45.049Z,20.18
2022-09-14T19:24:16.290Z,20.17
2022-09-14T19:26:46.268Z,20.14
2022-09-14T19:29:15.283Z,20.19
2022-09-14T19:31:44.340Z,20.23
2022-09-14T19:34:14.235Z,20.28
2022-09-14T19:36:42.741Z,20.30
2022-09-14T19:39:11.497Z,20.31
2022-09-14T19:41:40.284Z,20.31
2022-09-14T19:44:09.648Z,20.29
2022-09-14T19:46:39.534Z,20.27
2022-09-14T19:49:08.804Z,20.26
2022-09-14T19:51:38.719Z,20.25
2022-09-14T19:54:08.134Z,20.24
2022-09-14T19:56:36.930Z,20.25
2022-09-14T19:59:07.308Z,20.29
2022-09-14T20:01:39.063Z,20.27
2022-09-14T20:04:08.852Z,20.30
2022-09-14T20:06:40.913Z,20.27
2022-09-14T20:09:12.153Z,20.27
2022-09-14T20:11:42.355Z,20.29
2022-09-14T20:14:13.073Z,20.33
2022-09-14T20:16:44.499Z,20.33
2022-09-14T20:19:14.989Z,20.33
2022-09-14T20:21:45.962Z,20.34
2022-09-14T20:24:19.215Z,20.34
2022-09-14T20:26:49.067Z,20.34
2022-09-14T20:29:19.129Z,20.34
2022-09-14T20:31:50.532Z,20.35
2022-09-14T20:34:21.181Z,20.32
2022-09-14T20:36:52.540Z,20.31
2022-09-14T20:39:22.664Z,20.28
2022-09-14T20:41:51.323Z,20.27
2022-09-14T20:44:22.424Z,20.25
2022-09-14T20:46:52.132Z,20.21
2022-09-14T20:49:22.650Z,20.19
2022-09-14T20:51:54.200Z,20.18
2022-09-14T20:54:23.369Z,20.16
2022-09-14T20:56:51.763Z,20.12
2022-09-14T20:59:22.916Z,20.09
2022-09-14T21:01:52.641Z,20.06
2022-09-14T21:04:24.283Z,20.05
2022-09-14T21:06:55.701Z,20.05
2022-09-14T21:09:25.589Z,20.02
2022-09-14T21:11:54.393Z,20.02
2022-09-14T21:14:23.301Z,19.99
2022-09-14T21:16:55.233Z,19.95
2022-09-14T21:19:28.423Z,19.90
2022-09-14T21:21:58.156Z,19.84
2022-09-14T21:24:26.612Z,19.82
2022-09-14T21:26:56.952Z,19.82
2022-09-14T21:29:25.298Z,19.81
2022-09-14T21:31:54.285Z,19.81
2022-09-14T21:34:22.762Z,19.83
2022-09-14T21:36:52.794Z,19.86
2022-09-14T21:39:24.168Z,19.87
2022-09-14T21:41:58.367Z,19.86
2022-09-14T21:44:31.325Z,19.88
2022-09-14T21:47:00.080Z,19.89
2022-09-14T21:49:28.865Z,19.89
2022-09-14T21:51:57.516Z,19.86
2022-09-14T21:54:27.946Z,19.86
2022-09-14T21:56:56.546Z,19.85
2022-09-14T21:59:25.059Z,19.85
2022-09-14T22:01:53.518Z,19.85
2022-09-14T22:04:24.581Z,19.80
2022-09-14T22:06:53.537Z,19.73
2022-09-14T22:09:24.097Z,19.61
2022-09-14T22:11:54.065Z,19.43
2022-09-14T22:14:25.902Z,19.17
2022-09-14T22:16:54.788Z,18.87
2022-09-14T22:19:26.894Z,18.70
2022-09-14T22:21:56.655Z,18.56
2022-09-14T22:24:37.054Z,18.47
2022-09-14T22:27:11.243Z,18.50
2022-09-14T22:29:40.932Z,18.59
2022-09-14T22:32:11.156Z,18.70
2022-09-14T22:34:41.664Z,18.81
2022-09-14T22:37:10.906Z,18.86
2022-09-14T22:39:39.926Z,18.91
2022-09-14T22:42:09.772Z,18.94
2022-09-14T22:44:38.105Z,19.00
2022-09-14T22:47:06.747Z,19.05
2022-09-14T22:49:35.130Z,19.09
2022-09-14T22:52:03.834Z,19.09
2022-09-14T22:54:32.302Z,19.11
2022-09-14T22:57:03.287Z,19.13
2022-09-14T22:59:33.079Z,19.17
2022-09-14T23:02:01.583Z,19.22
2022-09-14T23:04:31.163Z,19.26
2022-09-14T23:07:00.891Z,19.29
2022-09-14T23:09:29.376Z,19.24
2022-09-14T23:11:57.764Z,19.20
2022-09-14T23:14:26.571Z,19.18
2022-09-14T23:16:56.375Z,19.10
2022-09-14T23:19:24.847Z,19.04
2022-09-14T23:21:55.664Z,19.01
2022-09-14T23:24:24.399Z,19.02
2022-09-14T23:26:52.745Z,19.05
2022-09-14T23:29:21.089Z,19.10
2022-09-14T23:31:49.514Z,19.10
2022-09-14T23:34:19.196Z,19.09
2022-09-14T23:36:47.575Z,19.06
2022-09-14T23:39:15.912Z,19.01
2022-09-14T23:41:44.266Z,19.01
2022-09-14T23:44:13.477Z,18.99
2022-09-14T23:46:42.309Z,18.95
2022-09-14T23:49:12.333Z,18.88
2022-09-14T23:51:42.815Z,18.85
2022-09-14T23:54:11.636Z,18.83
2022-09-14T23:56:40.025Z,18.81
2022-09-14T23:59:11.325Z,18.80
